Latest Weather Observations for Marree Airport

IDS60801

Issued at 4:02 pm CST Thursday 28 July 2016 (issued every 30 minutes, with the page automatically refreshed every 10 minutes)

About weather observations | Map of weather stations | Latest weather observations for SA | Other Formats
Station Details ID: 017126 Name: MARREE AERO Lat: -29.66 Lon: 138.07 Height: 50.0 m
Data from the previous 72 hours. | See also: Recent months at Marree Airport
Date/Time
CST
Temp
°C
App
Temp
°C
Dew
Point
°C
Rel
Hum
%
Delta-T
°C
Wind Press
QNH
hPa
Press
MSL
hPa
Rain since
9am
mm
Dir  Spd
km/h
Gust
km/h
Spd
kts
Gust
kts
28/04:00pm 18.4 15.7 3.5 37 6.9 SW 7 11 4 6 1027.3 1027.4 0.0
28/03:30pm 18.3 15.7 3.4 37 6.9 E 6 11 3 6 1027.5 1027.6 0.0
28/03:00pm 18.4 15.7 3.8 38 6.8 SE 7 11 4 6 1027.7 1027.8 0.0
28/02:30pm 18.5 16.0 3.9 38 6.9 NW 6 15 3 8 1027.8 1027.9 0.0
28/02:00pm 17.9 14.8 3.8 39 6.6 SE 9 20 5 11 1028.2 1028.3 0.0
28/01:30pm 18.0 15.1 4.6 41 6.4 N 9 17 5 9 1028.6 1028.7 0.0
28/01:00pm 17.5 14.1 4.1 41 6.3 NE 11 17 6 9 1029.2 1029.3 0.0
28/12:30pm 16.9 14.3 4.3 43 5.9 ENE 7 13 4 7 1029.6 1029.7 0.0
28/12:00pm 16.4 13.1 4.4 45 5.6 E 11 17 6 9 1030.4 1030.4 0.0
28/11:30am 15.6 11.5 4.6 48 5.1 ENE 15 20 8 11 1031.0 1031.0 0.0
28/11:00am 15.4 11.4 4.8 49 5.0 E 15 20 8 11 1031.3 1031.3 0.0
28/10:30am 14.8 10.7 4.5 50 4.7 NE 15 20 8 11 1031.9 1031.9 0.0
28/10:00am 14.1 10.5 4.9 54 4.3 E 13 19 7 10 1032.0 1032.0 0.0
28/09:30am 13.0 9.6 5.7 61 3.4 SE 13 15 7 8 1031.9 1031.9 0.0
28/09:00am 11.2 8.5 5.7 69 2.5 SSE 9 13 5 7 1031.8 1031.8 0.0
28/08:30am 8.3 5.6 5.4 82 1.3 SSE 9 11 5 6 1031.4 1031.4 0.0
28/08:00am 6.3 3.6 5.4 94 0.4 SE 9 11 5 6 1030.9 1030.9 0.0
28/07:30am 3.9 0.3 3.2 95 0.3 SE 11 11 6 6 1030.4 1030.4 0.0
28/07:00am 3.7 0.1 2.8 94 0.4 SE 11 13 6 7 1030.4 1030.4 0.0
28/06:30am 4.0 0.4 3.1 94 0.4 SE 11 13 6 7 1029.9 1030.0 0.0
28/06:00am 4.1 0.2 3.2 94 0.4 SE 13 15 7 8 1029.5 1029.6 0.0
28/05:30am 4.1 -0.2 3.2 94 0.4 SSE 15 15 8 8 1029.3 1029.4 0.0
28/05:00am 4.7 0.9 3.8 94 0.4 SSE 13 15 7 8 1028.9 1029.0 0.0
28/04:30am 4.9 1.1 4.0 94 0.4 SSE 13 15 7 8 1028.7 1028.8 0.0
28/04:00am 5.0 1.2 3.7 91 0.5 SSE 13 15 7 8 1028.5 1028.6 0.0
28/03:30am 5.4 1.2 3.9 90 0.6 SSE 15 15 8 8 1028.3 1028.4 0.0
28/03:00am 5.6 1.3 3.4 86 0.9 SSE 15 17 8 9 1028.1 1028.2 0.0
28/02:30am 6.4 2.1 3.4 81 1.3 SSE 15 15 8 8 1028.1 1028.2 0.0
28/02:00am 7.6 3.1 4.2 79 1.5 SSE 17 20 9 11 1028.1 1028.2 0.0
28/01:30am 8.4 3.7 5.0 79 1.5 S 19 22 10 12 1028.0 1028.1 0.0
28/01:00am 6.9 2.7 3.7 80 1.4 S 15 17 8 9 1027.8 1027.9 0.0
28/12:30am 7.0 2.8 3.6 79 1.4 SSE 15 17 8 9 1027.7 1027.8 0.0
28/12:00am 7.3 3.0 3.4 76 1.6 SSE 15 17 8 9 1027.6 1027.7 0.0
 
Date/Time
CST
Temp
°C
App
Temp
°C
Dew
Point
°C
Rel
Hum
%
Delta-T
°C
Wind Press
QNH
hPa
Press
MSL
hPa
Rain since
9am
mm
Dir  Spd
km/h
Gust
km/h
Spd
kts
Gust
kts
27/11:30pm 7.4 3.1 3.3 75 1.7 SSE 15 17 8 9 1027.8 1027.9 0.0
27/11:00pm 8.0 3.7 3.5 73 1.9 SSE 15 17 8 9 1028.3 1028.4 0.0
27/10:30pm 8.8 4.9 3.6 70 2.2 S 13 17 7 9 1028.3 1028.4 0.0
27/10:00pm 8.4 4.7 2.4 66 2.5 SSW 11 11 6 6 1028.5 1028.6 0.0
27/09:30pm 9.5 5.9 2.8 63 2.8 SSW 11 13 6 7 1028.4 1028.5 0.0
27/09:00pm 9.9 7.1 3.0 62 3.0 SSW 7 9 4 5 1028.4 1028.5 0.0
27/08:30pm 10.7 6.7 3.0 59 3.3 SSW 13 15 7 8 1028.1 1028.2 0.0
27/08:00pm 11.6 6.9 3.1 56 3.7 SSW 17 20 9 11 1028.1 1028.2 0.0
27/07:30pm 12.5 7.8 3.2 53 4.1 SSW 17 20 9 11 1027.8 1027.9 0.0
27/07:00pm 13.1 9.6 3.5 52 4.3 SSW 11 15 6 8 1027.7 1027.8 0.0
27/06:30pm 14.3 9.1 3.5 48 4.9 S 20 24 11 13 1027.2 1027.3 0.0
27/06:00pm 15.1 9.9 3.6 46 5.2 S 20 24 11 13 1027.1 1027.2 0.0
27/05:30pm 16.1 10.2 3.9 44 5.6 S 24 30 13 16 1026.7 1026.8 0.0
27/05:00pm 16.9 10.2 3.6 41 6.2 SSW 28 35 15 19 1026.2 1026.3 0.0
27/04:30pm 17.4 11.8 3.7 40 6.4 S 22 28 12 15 1026.0 1026.1 0.0
27/04:00pm 17.7 11.8 3.9 40 6.5 S 24 33 13 18 1025.7 1025.8 0.0
27/03:30pm 18.1 13.0 3.9 39 6.7 S 20 30 11 16 1025.4 1025.5 0.0
27/03:00pm 18.5 13.0 3.9 38 6.9 S 22 32 12 17 1025.1 1025.2 0.0
27/02:30pm 17.8 11.6 4.4 41 6.3 S 26 35 14 19 1024.8 1024.9 0.0
27/02:00pm 17.7 11.2 4.6 42 6.2 S 28 43 15 23 1025.0 1025.1 0.0
27/01:46pm 17.8 11.4 5.1 43 6.1 S 28 50 15 27 1025.1 1025.2 0.0
27/01:30pm 17.4 10.5 4.7 43 6.0 S 30 41 16 22 1025.3 1025.4 0.0
27/01:00pm 17.5 11.1 5.4 45 5.9 S 28 41 15 22 1025.8 1025.9 0.0
27/12:30pm 16.7 10.3 5.3 47 5.4 S 28 43 15 23 1026.0 1026.1 0.0
27/12:00pm 16.4 9.3 5.4 48 5.2 S 32 41 17 22 1026.1 1026.2 0.0
27/11:30am 16.2 9.2 5.8 50 5.0 S 32 43 17 23 1026.3 1026.4 0.0
27/11:00am 15.5 8.8 5.4 51 4.8 S 30 39 16 21 1026.3 1026.4 0.0
27/10:30am 14.9 7.8 5.7 54 4.4 SSW 32 41 17 22 1026.3 1026.4 0.0
27/10:00am 15.0 7.7 5.5 53 4.5 S 33 44 18 24 1026.2 1026.3 0.0
27/09:30am 14.5 7.3 5.8 56 4.1 SSW 33 43 18 23 1026.0 1026.1 0.0
27/09:00am 14.1 7.9 6.2 59 3.8 SSW 28 35 15 19 1025.5 1025.6 0.0
27/08:30am 14.0 9.8 7.3 64 3.3 S 19 33 10 18 1025.0 1025.1 0.0
27/08:00am 11.5 9.0 9.6 88 1.0 SW 13 15 7 8 1024.4 1024.5 0.0
27/07:30am 10.1 7.5 9.3 95 0.4 SW 13 15 7 8 1023.8 1023.9 0.0
27/07:00am 9.8 6.0 9.0 95 0.4 SW 19 22 10 12 1023.3 1023.4 0.0
27/06:30am 10.4 7.0 9.2 92 0.6 SW 17 22 9 12 1023.1 1023.2 0.0
27/06:00am 9.9 5.6 7.2 83 1.3 SW 19 20 10 11 1022.3 1022.4 0.0
27/05:30am 10.9 6.6 7.0 77 1.8 SW 19 22 10 12 1022.0 1022.0 0.0
27/05:00am 11.4 7.4 6.5 72 2.3 SW 17 24 9 13 1021.8 1021.8 0.0
27/04:30am 11.1 6.7 6.5 73 2.2 WSW 19 28 10 15 1021.4 1021.4 0.0
27/04:00am 11.6 6.2 6.5 71 2.4 WSW 24 30 13 16 1021.1 1021.1 0.0
27/03:30am 11.1 6.3 5.8 70 2.5 WSW 20 32 11 17 1021.3 1021.3 0.0
27/03:00am 10.3 5.5 4.5 67 2.6 W 19 20 10 11 1021.1 1021.1 0.0
27/02:30am 10.5 4.7 4.2 65 2.8 W 24 28 13 15 1021.4 1021.4 0.0
27/02:00am 10.0 4.8 3.7 65 2.8 W 20 24 11 13 1021.5 1021.5 0.0
27/01:30am 9.5 5.0 4.1 69 2.4 W 17 22 9 12 1021.8 1021.8 0.0
27/01:00am 9.6 5.7 3.6 66 2.6 W 13 15 7 8 1021.8 1021.8 0.0
27/12:30am 9.6 5.4 3.6 66 2.6 W 15 17 8 9 1021.9 1021.9 0.0
27/12:00am 9.9 5.6 3.4 64 2.8 W 15 19 8 10 1021.8 1021.8 0.0
 
Date/Time
CST
Temp
°C
App
Temp
°C
Dew
Point
°C
Rel
Hum
%
Delta-T
°C
Wind Press
QNH
hPa
Press
MSL
hPa
Rain since
9am
mm
Dir  Spd
km/h
Gust
km/h
Spd
kts
Gust
kts
26/11:30pm 10.3 6.4 3.3 62 3.0 W 13 17 7 9 1021.6 1021.6 0.0
26/11:00pm 10.5 5.9 3.5 62 3.1 W 17 19 9 10 1021.5 1021.5 0.0
26/10:30pm 10.3 6.0 3.1 61 3.1 W 15 17 8 9 1021.2 1021.2 0.0
26/10:00pm 10.8 6.8 2.9 58 3.4 WSW 13 17 7 9 1021.2 1021.2 0.0
26/09:30pm 11.2 7.2 3.0 57 3.6 W 13 17 7 9 1020.9 1020.9 0.0
26/09:00pm 11.4 7.0 2.9 56 3.7 W 15 17 8 9 1020.7 1020.7 0.0
26/08:30pm 12.6 8.3 3.0 52 4.2 W 15 20 8 11 1020.6 1020.6 0.0
26/08:00pm 14.1 9.0 3.3 48 4.9 W 19 22 10 12 1020.3 1020.3 0.0
26/07:30pm 15.2 10.1 3.0 44 5.5 W 19 24 10 13 1020.0 1020.0 0.0
26/07:00pm 15.4 10.3 2.9 43 5.6 W 19 20 10 11 1019.6 1019.6 0.0
26/06:30pm 16.3 11.1 3.4 42 5.9 WNW 20 24 11 13 1019.2 1019.2 0.0
26/06:00pm 17.3 10.9 3.2 39 6.5 WNW 26 32 14 17 1018.9 1018.9 0.0
26/05:30pm 18.4 10.5 2.3 34 7.3 W 33 41 18 22 1018.8 1018.8 0.0
26/05:00pm 19.3 11.0 2.2 32 7.9 WNW 35 44 19 24 1018.5 1018.5 0.0
26/04:30pm 19.6 11.4 2.9 33 7.8 WNW 35 44 19 24 1018.6 1018.6 0.0
26/04:00pm 19.7 12.2 3.4 34 7.7 WNW 32 48 17 26 1018.6 1018.6 0.0
26/03:30pm 19.4 12.4 4.0 36 7.3 WNW 30 41 16 22 1018.9 1018.9 0.0
26/03:00pm 19.3 12.4 4.6 38 7.1 W 30 41 16 22 1019.2 1019.2 0.0
26/02:30pm 19.3 11.9 3.9 36 7.3 W 32 46 17 25 1019.5 1019.5 0.0
26/02:00pm 19.3 12.2 3.5 35 7.5 W 30 41 16 22 1019.6 1019.6 0.0
26/01:30pm 19.0 12.1 4.4 38 7.0 WNW 30 39 16 21 1020.0 1020.0 0.0
26/01:01pm 18.4 12.1 5.6 43 6.3 WNW 28 46 15 25 1020.4 1020.4 0.0
26/01:00pm 18.3 12.3 5.2 42 6.3 WNW 26 46 14 25 1020.5 1020.5 0.0
26/12:30pm 18.4 13.2 5.6 43 6.2 WNW 22 33 12 18 1020.7 1020.7 0.0
26/12:00pm 17.7 13.1 6.3 47 5.6 WNW 20 30 11 16 1021.4 1021.4 0.0
26/11:30am 16.9 12.2 6.1 49 5.3 NW 20 26 11 14 1021.8 1021.8 0.0
26/11:00am 16.4 12.4 6.5 52 4.9 NW 17 24 9 13 1022.4 1022.5 0.0
26/10:30am 15.6 12.5 7.1 57 4.2 WNW 13 19 7 10 1022.8 1022.9 0.0
26/10:00am 14.7 12.4 7.3 61 3.6 WNW 9 13 5 7 1023.1 1023.2 0.0
26/09:30am 13.8 11.8 7.1 64 3.3 WNW 7 11 4 6 1023.1 1023.2 0.0
26/09:00am 12.2 10.3 6.5 68 2.7 WNW 6 7 3 4 1022.9 1023.0 0.0
26/08:30am 9.9 7.8 5.7 75 1.9 NW 6 7 3 4 1022.7 1022.8 0.0
26/08:00am 7.2 4.4 5.2 87 0.9 WNW 9 11 5 6 1022.4 1022.5 0.0
26/07:30am 4.9 1.3 3.2 89 0.7 NW 11 13 6 7 1022.1 1022.1 0.0
26/07:00am 4.2 2.6 2.4 88 0.7 CALM 0 0 0 0 1021.7 1021.7 0.0
26/06:30am 4.3 1.6 2.5 88 0.7 SSW 6 9 3 5 1021.6 1021.6 0.0
26/06:00am 4.8 1.2 3.0 88 0.7 SW 11 13 6 7 1021.1 1021.1 0.0
26/05:30am 4.9 0.9 2.9 87 0.8 WSW 13 13 7 7 1020.9 1020.9 0.0
26/05:00am 4.8 0.4 2.8 87 0.8 WSW 15 15 8 8 1020.7 1020.7 0.0
26/04:30am 4.9 1.7 2.8 86 0.9 W 9 11 5 6 1020.7 1020.7 0.0
26/04:00am 4.4 0.6 1.8 83 1.0 W 11 13 6 7 1020.8 1020.8 0.0
26/03:30am 5.1 1.7 1.9 80 1.3 W 9 9 5 5 1020.9 1020.9 0.0
26/03:00am 5.1 2.1 1.8 79 1.3 WNW 7 9 4 5 1021.1 1021.1 0.0
26/02:30am 5.9 2.9 2.2 77 1.5 NNW 7 9 4 5 1021.3 1021.3 0.0
26/02:00am 7.0 3.4 3.1 76 1.6 NNW 11 11 6 6 1021.3 1021.3 0.0
26/01:30am 6.9 3.3 2.8 75 1.7 NNW 11 11 6 6 1021.4 1021.4 0.0
26/01:00am 6.8 3.2 2.7 75 1.7 NNW 11 13 6 7 1021.4 1021.4 0.0
26/12:30am 7.2 4.5 2.7 73 1.9 N 6 7 3 4 1021.6 1021.6 0.0
26/12:00am 7.5 4.8 2.6 71 2.0 WSW 6 9 3 5 1021.6 1021.6 0.0
 
Date/Time
CST
Temp
°C
App
Temp
°C
Dew
Point
°C
Rel
Hum
%
Delta-T
°C
Wind Press
QNH
hPa
Press
MSL
hPa
Rain since
9am
mm
Dir  Spd
km/h
Gust
km/h
Spd
kts
Gust
kts
25/11:30pm 7.6 4.3 2.3 69 2.2 WSW 9 11 5 6 1021.6 1021.6 0.0
25/11:00pm 8.3 5.4 2.8 68 2.3 WNW 7 7 4 4 1021.8 1021.8 0.0
25/10:30pm 9.0 6.2 3.2 67 2.5 WNW 7 7 4 4 1022.0 1022.0 0.0
25/10:00pm 9.4 6.2 3.2 65 2.7 NW 9 11 5 6 1022.0 1022.0 0.0
25/09:30pm 9.8 6.6 3.3 64 2.8 WNW 9 11 5 6 1022.1 1022.1 0.0
25/09:00pm 10.1 7.0 3.4 63 2.9 WNW 9 11 5 6 1022.2 1022.2 0.0
25/08:30pm 10.7 7.2 3.5 61 3.2 WNW 11 13 6 7 1022.0 1022.0 0.0
25/08:00pm 11.3 8.1 3.3 58 3.5 W 9 11 5 6 1021.8 1021.8 0.0
25/07:30pm 11.4 8.3 3.4 58 3.5 NW 9 11 5 6 1021.6 1021.6 0.0
25/07:00pm 12.4 8.5 3.6 55 3.9 WNW 13 15 7 8 1021.4 1021.4 0.0
25/06:30pm 13.4 10.0 3.8 52 4.3 WNW 11 13 6 7 1021.1 1021.1 0.0
25/06:00pm 15.2 10.7 4.0 47 5.2 W 17 19 9 10 1020.7 1020.7 0.0
25/05:30pm 16.3 11.2 4.0 44 5.7 W 20 32 11 17 1020.8 1020.8 0.0
25/05:00pm 17.1 11.6 3.8 41 6.2 W 22 32 12 17 1020.8 1020.8 0.0
25/04:30pm 17.4 11.8 3.3 39 6.5 WSW 22 32 12 17 1020.7 1020.7 0.0

Other Formats:

Comma delimited format used in spreadsheet applications
http://www.bom.gov.au/fwo/IDS60801/IDS60801.95480.axf

JavaScript Object Notation format (JSON) in row-major order
http://www.bom.gov.au/fwo/IDS60801/IDS60801.95480.json